createdAt,value
2023-05-15T00:00:06.744Z,96682.59
2023-05-15T00:02:40.117Z,96676.16
2023-05-15T00:05:10.944Z,96683.75
2023-05-15T00:07:38.864Z,96686.09
2023-05-15T00:10:08.961Z,96670.00
2023-05-15T00:12:36.906Z,96664.63
2023-05-15T00:15:04.650Z,96672.03
2023-05-15T00:17:31.943Z,96669.38
2023-05-15T00:20:00.566Z,96658.72
2023-05-15T00:22:27.881Z,96656.53
2023-05-15T00:24:55.188Z,96651.72
2023-05-15T00:27:22.472Z,96649.78
2023-05-15T00:29:49.734Z,96646.47
2023-05-15T00:32:17.003Z,96640.19
2023-05-15T00:34:45.166Z,96640.31
2023-05-15T00:37:12.630Z,96635.09
2023-05-15T00:39:40.374Z,96636.06
2023-05-15T00:42:09.253Z,96637.78
2023-05-15T00:44:38.414Z,96635.25
2023-05-15T00:47:07.398Z,96637.25
2023-05-15T00:49:35.879Z,96636.72
2023-05-15T00:52:05.619Z,96640.19
2023-05-15T00:54:32.904Z,96630.09
2023-05-15T00:57:00.984Z,96617.13
2023-05-15T00:59:32.920Z,96603.84
2023-05-15T01:02:00.298Z,96590.31
2023-05-15T01:04:27.675Z,96582.22
2023-05-15T01:06:55.073Z,96588.06
2023-05-15T01:09:25.669Z,96593.25
2023-05-15T01:11:55.250Z,96597.53
2023-05-15T01:14:22.700Z,96595.00
2023-05-15T01:16:50.507Z,96598.97
2023-05-15T01:19:17.982Z,96595.56
2023-05-15T01:22:15.585Z,96593.25
2023-05-15T01:25:12.035Z,96601.28
2023-05-15T01:27:56.920Z,96597.09
2023-05-15T01:30:34.531Z,96601.91
2023-05-15T01:33:42.995Z,96608.00
2023-05-15T01:36:26.955Z,96602.75
2023-05-15T01:38:59.723Z,96604.66
2023-05-15T01:42:06.673Z,96609.44
2023-05-15T01:44:43.311Z,96604.94
2023-05-15T01:47:31.148Z,96609.75
2023-05-15T01:50:01.982Z,96611.69
2023-05-15T01:52:35.446Z,96600.72
2023-05-15T01:55:04.679Z,96599.97
2023-05-15T01:57:33.304Z,96597.66
2023-05-15T02:00:02.800Z,96592.44
2023-05-15T02:02:31.817Z,96593.63
2023-05-15T02:04:59.769Z,96581.75
2023-05-15T02:07:27.489Z,96587.06
2023-05-15T02:09:55.832Z,96592.56
2023-05-15T02:12:24.210Z,96585.84
2023-05-15T02:14:52.708Z,96577.56
2023-05-15T02:17:22.904Z,96576.78
2023-05-15T02:19:51.366Z,96568.59
2023-05-15T02:22:18.523Z,96568.00
2023-05-15T02:24:45.961Z,96565.84
2023-05-15T02:27:28.875Z,96554.38
2023-05-15T02:30:33.098Z,96546.69
2023-05-15T02:33:42.828Z,96554.78
2023-05-15T02:36:19.814Z,96552.34
2023-05-15T02:38:54.213Z,96556.25
2023-05-15T02:41:23.081Z,96553.16
2023-05-15T02:43:53.105Z,96553.38
2023-05-15T02:46:22.313Z,96553.69
2023-05-15T02:48:50.718Z,96552.59
2023-05-15T02:51:18.206Z,96555.38
2023-05-15T02:53:45.484Z,96545.06
2023-05-15T02:56:12.757Z,96540.97
2023-05-15T02:58:40.487Z,96541.34
2023-05-15T03:01:08.024Z,96538.03
2023-05-15T03:03:35.415Z,96530.50
2023-05-15T03:06:02.872Z,96521.16
2023-05-15T03:08:30.418Z,96515.19
2023-05-15T03:13:25.114Z,96510.94
2023-05-15T03:15:53.421Z,96505.94
2023-05-15T03:18:20.793Z,96502.06
2023-05-15T03:20:49.313Z,96498.59
2023-05-15T03:23:16.520Z,96494.34
2023-05-15T03:25:43.786Z,96503.16
2023-05-15T03:28:11.676Z,96504.09
2023-05-15T03:30:39.015Z,96500.78
2023-05-15T03:33:06.770Z,96499.38
2023-05-15T03:35:34.183Z,96505.66
2023-05-15T03:38:02.382Z,96505.59
2023-05-15T03:40:29.687Z,96502.44
2023-05-15T03:42:58.410Z,96511.53
2023-05-15T03:45:26.197Z,96510.06
2023-05-15T03:47:53.643Z,96514.06
2023-05-15T03:50:21.106Z,96512.06
2023-05-15T03:52:48.458Z,96508.63
2023-05-15T03:55:15.843Z,96505.03
2023-05-15T03:57:43.143Z,96510.53
2023-05-15T04:00:11.207Z,96500.06
2023-05-15T04:02:41.508Z,96492.66
2023-05-15T04:05:09.935Z,96485.69
2023-05-15T04:07:38.097Z,96493.22
2023-05-15T04:10:06.136Z,96490.59
2023-05-15T04:12:35.582Z,96483.94
2023-05-15T04:15:20.270Z,96484.25
2023-05-15T04:17:50.373Z,96484.75
2023-05-15T04:20:21.034Z,96487.09
2023-05-15T04:22:48.902Z,96486.47
2023-05-15T04:25:16.558Z,96492.56
2023-05-15T04:27:44.789Z,96493.81
2023-05-15T04:30:13.176Z,96490.22
2023-05-15T04:32:41.176Z,96487.56
2023-05-15T04:35:10.641Z,96479.72
2023-05-15T04:37:42.301Z,96484.25
2023-05-15T04:40:10.506Z,96478.31
2023-05-15T04:42:39.497Z,96473.91
2023-05-15T04:45:08.108Z,96478.94
2023-05-15T04:47:36.141Z,96470.22
2023-05-15T04:50:04.049Z,96472.22
2023-05-15T04:52:32.440Z,96472.41
2023-05-15T04:54:59.862Z,96476.47
2023-05-15T04:57:27.637Z,96474.44
2023-05-15T04:59:55.010Z,96474.78
2023-05-15T05:02:23.812Z,96467.06
2023-05-15T05:04:51.720Z,96474.88
2023-05-15T05:07:19.419Z,96462.75
2023-05-15T05:09:46.820Z,96469.19
2023-05-15T05:12:14.672Z,96467.25
2023-05-15T05:14:42.523Z,96458.56
2023-05-15T05:17:10.104Z,96449.97
2023-05-15T05:19:37.423Z,96451.53
2023-05-15T05:22:05.982Z,96449.66
2023-05-15T05:24:35.891Z,96439.66
2023-05-15T05:27:04.135Z,96450.47
2023-05-15T05:29:32.406Z,96450.28
2023-05-15T05:31:59.995Z,96455.16
2023-05-15T05:34:27.410Z,96458.72
2023-05-15T05:36:54.788Z,96454.94
2023-05-15T05:39:22.069Z,96460.75
2023-05-15T05:41:49.472Z,96460.91
2023-05-15T05:44:16.876Z,96454.97
2023-05-15T05:46:45.541Z,96453.59
2023-05-15T05:49:12.861Z,96449.97
2023-05-15T05:51:40.186Z,96450.13
2023-05-15T05:54:07.451Z,96449.63
2023-05-15T05:56:34.790Z,96448.25
2023-05-15T05:59:02.383Z,96452.63
2023-05-15T06:01:29.832Z,96445.75
2023-05-15T06:03:57.675Z,96451.84
2023-05-15T06:06:25.176Z,96445.25
2023-05-15T06:08:54.264Z,96449.47
2023-05-15T06:11:25.319Z,96450.56
2023-05-15T06:13:53.132Z,96440.09
2023-05-15T06:16:21.752Z,96450.28
2023-05-15T06:18:49.114Z,96443.88
2023-05-15T06:21:16.477Z,96446.22
2023-05-15T06:23:43.804Z,96447.16
2023-05-15T06:26:11.271Z,96442.94
2023-05-15T06:28:38.513Z,96448.09
2023-05-15T06:31:06.297Z,96452.16
2023-05-15T06:33:33.606Z,96450.28
2023-05-15T06:36:00.959Z,96455.44
2023-05-15T06:38:28.269Z,96458.09
2023-05-15T06:40:55.985Z,96457.78
2023-05-15T06:43:23.230Z,96451.34
2023-05-15T06:45:50.867Z,96454.94
2023-05-15T06:48:18.208Z,96456.16
2023-05-15T06:50:45.616Z,96448.94
2023-05-15T06:53:14.525Z,96451.91
2023-05-15T06:55:41.889Z,96447.38
2023-05-15T06:58:09.148Z,96449.72
2023-05-15T07:00:36.428Z,96447.22
2023-05-15T07:03:04.065Z,96442.03
2023-05-15T07:05:31.396Z,96445.22
2023-05-15T07:07:58.690Z,96456.56
2023-05-15T07:10:26.456Z,96453.56
2023-05-15T07:12:53.997Z,96457.88
2023-05-15T07:15:21.318Z,96449.38
2023-05-15T07:17:48.716Z,96454.22
2023-05-15T07:20:16.051Z,96449.41
2023-05-15T07:22:55.130Z,96447.16
2023-05-15T07:25:25.464Z,96444.53
2023-05-15T07:27:53.484Z,96443.84
2023-05-15T07:30:21.090Z,96440.56
2023-05-15T07:32:48.614Z,96443.63
2023-05-15T07:35:16.305Z,96451.28
2023-05-15T07:37:43.616Z,96446.38
2023-05-15T07:40:11.297Z,96451.44
2023-05-15T07:42:39.955Z,96448.31
2023-05-15T07:45:08.307Z,96460.53
2023-05-15T07:47:36.382Z,96459.72
2023-05-15T07:50:04.098Z,96470.81
2023-05-15T07:52:31.525Z,96459.53
2023-05-15T07:54:59.203Z,96455.63
2023-05-15T07:57:26.743Z,96470.56
2023-05-15T07:59:54.034Z,96471.13
2023-05-15T08:02:21.419Z,96469.56
2023-05-15T08:04:48.929Z,96469.63
2023-05-15T08:07:16.650Z,96469.63
2023-05-15T08:09:44.042Z,96474.47
2023-05-15T08:12:22.101Z,96470.78
2023-05-15T08:14:54.655Z,96471.97
2023-05-15T08:17:23.165Z,96468.91
2023-05-15T08:19:50.742Z,96472.03
2023-05-15T08:22:18.172Z,96475.00
2023-05-15T08:24:45.819Z,96472.91
2023-05-15T08:27:13.339Z,96473.72
2023-05-15T08:29:40.684Z,96474.06
2023-05-15T08:32:09.561Z,96469.84
2023-05-15T08:34:37.131Z,96466.25
2023-05-15T08:37:06.322Z,96469.84
2023-05-15T08:39:33.949Z,96466.56
2023-05-15T08:42:28.429Z,96464.88
2023-05-15T08:44:56.617Z,96463.94
2023-05-15T08:47:25.525Z,96469.53
2023-05-15T08:50:15.556Z,96483.44
2023-05-15T08:52:45.748Z,96483.56
2023-05-15T08:55:15.471Z,96483.34
2023-05-15T08:57:44.237Z,96478.72
2023-05-15T09:00:14.897Z,96493.75
2023-05-15T09:02:43.327Z,96488.84
2023-05-15T09:05:11.415Z,96478.91
2023-05-15T09:07:45.110Z,96484.84
2023-05-15T09:10:14.387Z,96481.16
2023-05-15T09:12:45.450Z,96476.63
2023-05-15T09:15:18.870Z,96481.41
2023-05-15T09:17:46.594Z,96474.97
2023-05-15T09:20:32.566Z,96480.28
2023-05-15T09:23:02.924Z,96478.75
2023-05-15T09:25:40.166Z,96485.94
2023-05-15T09:28:10.755Z,96481.00
2023-05-15T09:30:44.597Z,96494.13
2023-05-15T09:33:12.735Z,96502.53
2023-05-15T09:35:41.058Z,96504.09
2023-05-15T09:38:13.158Z,96497.53
2023-05-15T09:40:41.123Z,96504.34
2023-05-15T09:43:13.375Z,96501.84
2023-05-15T09:45:40.718Z,96501.69
2023-05-15T09:48:08.812Z,96499.00
2023-05-15T09:50:38.726Z,96507.78
2023-05-15T09:53:06.611Z,96513.53
2023-05-15T09:55:37.265Z,96507.81
2023-05-15T09:58:16.480Z,96507.88
2023-05-15T10:00:48.394Z,96510.38
2023-05-15T10:03:21.030Z,96517.91
2023-05-15T10:05:48.693Z,96517.84
2023-05-15T10:08:26.158Z,96525.91
2023-05-15T10:10:54.612Z,96521.50
2023-05-15T10:13:23.656Z,96524.44
2023-05-15T10:15:52.945Z,96514.84
2023-05-15T10:18:26.371Z,96509.53
2023-05-15T10:20:54.524Z,96516.22
2023-05-15T10:23:22.519Z,96508.06
2023-05-15T10:26:03.272Z,96507.44
2023-05-15T10:28:32.087Z,96511.81
2023-05-15T10:31:03.398Z,96508.19
2023-05-15T10:33:31.675Z,96512.66
2023-05-15T10:36:00.095Z,96508.75
2023-05-15T10:38:29.266Z,96508.53
2023-05-15T10:41:13.102Z,96507.78
2023-05-15T10:43:44.515Z,96519.97
2023-05-15T10:46:12.273Z,96518.13
2023-05-15T10:48:40.416Z,96510.13
2023-05-15T10:51:17.060Z,96512.28
2023-05-15T10:53:46.117Z,96517.44
2023-05-15T10:56:17.325Z,96510.41
2023-05-15T10:58:49.622Z,96513.09
2023-05-15T11:01:35.348Z,96510.25
2023-05-15T11:04:15.333Z,96507.84
2023-05-15T11:06:50.803Z,96508.84
2023-05-15T11:09:28.789Z,96507.09
2023-05-15T11:12:01.818Z,96505.84
2023-05-15T11:14:43.698Z,96508.84
2023-05-15T11:17:13.017Z,96504.38
2023-05-15T11:19:49.332Z,96502.09
2023-05-15T11:22:27.925Z,96494.94
2023-05-15T11:25:16.728Z,96488.91
2023-05-15T11:27:46.477Z,96489.25
2023-05-15T11:30:22.531Z,96490.59
2023-05-15T11:32:58.885Z,96485.38
2023-05-15T11:35:47.858Z,96484.25
2023-05-15T11:38:18.131Z,96483.16
2023-05-15T11:40:52.575Z,96486.03
2023-05-15T11:43:25.798Z,96474.53
2023-05-15T11:46:04.361Z,96484.41
2023-05-15T11:48:37.792Z,96488.03
2023-05-15T11:51:06.108Z,96487.34
2023-05-15T11:53:34.164Z,96483.41
2023-05-15T11:56:01.561Z,96485.06
2023-05-15T11:58:28.842Z,96485.38
2023-05-15T12:00:57.771Z,96479.81
2023-05-15T12:03:32.470Z,96489.69
2023-05-15T12:06:02.949Z,96490.81
2023-05-15T12:08:36.303Z,96486.66
2023-05-15T12:11:05.092Z,96477.03
2023-05-15T12:13:33.456Z,96479.25
2023-05-15T12:16:03.660Z,96479.25
2023-05-15T12:18:34.741Z,96486.69
2023-05-15T12:21:02.215Z,96491.75
2023-05-15T12:23:29.432Z,96484.94
2023-05-15T12:26:02.753Z,96493.16
2023-05-15T12:28:33.447Z,96495.50
2023-05-15T12:31:00.872Z,96493.81
2023-05-15T12:33:28.464Z,96495.84
2023-05-15T12:36:00.242Z,96497.56
2023-05-15T12:38:29.011Z,96495.06
2023-05-15T12:40:57.411Z,96503.00
2023-05-15T12:43:26.209Z,96503.38
2023-05-15T12:45:55.823Z,96497.75
2023-05-15T12:48:23.598Z,96507.59
2023-05-15T12:50:51.636Z,96494.34
2023-05-15T12:53:21.516Z,96498.97
2023-05-15T12:55:49.034Z,96511.63
2023-05-15T12:58:18.841Z,96508.91
2023-05-15T13:00:47.944Z,96504.66
2023-05-15T13:03:15.795Z,96507.97
2023-05-15T13:05:45.523Z,96509.16
2023-05-15T13:08:18.668Z,96514.56
2023-05-15T13:10:47.514Z,96510.75
2023-05-15T13:13:16.652Z,96509.09
2023-05-15T13:15:45.177Z,96506.44
2023-05-15T13:18:18.570Z,96505.00
2023-05-15T13:20:48.925Z,96508.69
2023-05-15T13:23:23.539Z,96503.16
2023-05-15T13:25:50.935Z,96507.44
2023-05-15T13:28:18.244Z,96510.47
2023-05-15T13:30:46.153Z,96510.09
2023-05-15T13:33:13.675Z,96519.00
2023-05-15T13:35:43.179Z,96518.47
2023-05-15T13:38:11.917Z,96516.28
2023-05-15T13:40:39.886Z,96519.09
2023-05-15T13:43:07.406Z,96510.72
2023-05-15T13:45:35.333Z,96511.69
2023-05-15T13:48:03.193Z,96512.59
2023-05-15T13:50:30.664Z,96507.97
2023-05-15T13:52:57.968Z,96511.84
2023-05-15T13:55:26.188Z,96508.69
2023-05-15T13:57:53.679Z,96511.59
2023-05-15T14:00:21.742Z,96512.63
2023-05-15T14:02:49.134Z,96508.19
2023-05-15T14:05:18.470Z,96520.94
2023-05-15T14:07:46.087Z,96516.66
2023-05-15T14:10:13.357Z,96524.09
2023-05-15T14:12:40.811Z,96520.66
2023-05-15T14:15:08.900Z,96522.97
2023-05-15T14:17:36.177Z,96518.06
2023-05-15T14:20:05.200Z,96527.13
2023-05-15T14:22:32.910Z,96524.34
2023-05-15T14:25:00.492Z,96531.75
2023-05-15T14:27:27.936Z,96526.19
2023-05-15T14:29:56.889Z,96536.59
2023-05-15T14:32:25.031Z,96534.06
2023-05-15T14:34:52.472Z,96530.66
2023-05-15T14:37:19.960Z,96528.75
2023-05-15T14:39:47.304Z,96523.38
2023-05-15T14:42:14.630Z,96519.50
2023-05-15T14:44:41.947Z,96522.44
2023-05-15T14:47:16.881Z,96525.81
2023-05-15T14:49:44.231Z,96531.91
2023-05-15T14:52:12.420Z,96529.75
2023-05-15T14:54:40.350Z,96528.53
2023-05-15T14:57:08.310Z,96533.97
2023-05-15T15:02:03.307Z,96539.88
2023-05-15T15:04:34.421Z,96537.22
2023-05-15T15:07:05.358Z,96534.56
2023-05-15T15:09:32.665Z,96533.19
2023-05-15T15:12:00.155Z,96541.81
2023-05-15T15:14:27.546Z,96536.50
2023-05-15T15:16:54.874Z,96541.63
2023-05-15T15:19:22.198Z,96549.84
2023-05-15T15:21:49.608Z,96550.34
2023-05-15T15:24:17.272Z,96554.28
2023-05-15T15:26:44.589Z,96550.84
2023-05-15T15:29:11.935Z,96561.97
2023-05-15T15:31:39.405Z,96551.00
2023-05-15T15:34:09.162Z,96564.59
2023-05-15T15:36:38.699Z,96562.59
2023-05-15T15:39:06.189Z,96563.13
2023-05-15T15:41:33.560Z,96567.69
2023-05-15T15:44:02.381Z,96554.84
2023-05-15T15:46:29.698Z,96557.75
2023-05-15T15:48:57.048Z,96554.56
2023-05-15T15:51:24.313Z,96555.03
2023-05-15T15:53:51.595Z,96560.59
2023-05-15T15:56:19.023Z,96559.84
2023-05-15T15:58:46.496Z,96571.44
2023-05-15T16:01:13.956Z,96571.31
2023-05-15T16:03:41.318Z,96565.97
2023-05-15T16:06:08.896Z,96572.47
2023-05-15T16:08:36.247Z,96570.25
2023-05-15T16:11:03.559Z,96563.72
2023-05-15T16:13:30.997Z,96567.19
2023-05-15T16:15:58.512Z,96570.19
2023-05-15T16:18:26.258Z,96573.03
2023-05-15T16:20:53.829Z,96570.19
2023-05-15T16:23:21.340Z,96578.59
2023-05-15T16:25:48.926Z,96587.53
2023-05-15T16:28:16.469Z,96587.91
2023-05-15T16:30:49.358Z,96591.69
2023-05-15T16:33:18.457Z,96594.47
2023-05-15T16:35:46.678Z,96598.38
2023-05-15T16:38:14.729Z,96598.13
2023-05-15T16:40:42.125Z,96594.53
2023-05-15T16:43:09.507Z,96598.09
2023-05-15T16:45:36.907Z,96597.81
2023-05-15T16:48:04.646Z,96609.94
2023-05-15T16:50:33.147Z,96612.44
2023-05-15T16:53:00.763Z,96614.75
2023-05-15T16:55:28.392Z,96613.31
2023-05-15T16:57:55.799Z,96614.31
2023-05-15T17:00:23.227Z,96621.19
2023-05-15T17:02:50.990Z,96623.84
2023-05-15T17:05:18.339Z,96613.66
2023-05-15T17:07:45.666Z,96610.47
2023-05-15T17:10:13.935Z,96613.63
2023-05-15T17:12:41.491Z,96612.66
2023-05-15T17:15:09.228Z,96629.50
2023-05-15T17:17:36.742Z,96628.72
2023-05-15T17:20:05.875Z,96633.22
2023-05-15T17:22:33.433Z,96626.28
2023-05-15T17:25:01.046Z,96638.41
2023-05-15T17:27:28.364Z,96630.88
2023-05-15T17:29:56.329Z,96635.38
2023-05-15T17:32:24.071Z,96635.63
2023-05-15T17:34:51.549Z,96642.75
2023-05-15T17:37:18.908Z,96653.31
2023-05-15T17:39:46.421Z,96648.81
2023-05-15T17:42:13.872Z,96646.72
2023-05-15T17:44:41.356Z,96643.41
2023-05-15T17:47:10.249Z,96654.25
2023-05-15T17:49:39.195Z,96651.09
2023-05-15T17:52:07.912Z,96660.19
2023-05-15T17:54:35.366Z,96675.47
2023-05-15T17:57:02.805Z,96671.94
2023-05-15T17:59:31.249Z,96670.69
2023-05-15T18:01:58.773Z,96673.84
2023-05-15T18:04:26.217Z,96683.09
2023-05-15T18:06:53.581Z,96687.69
2023-05-15T18:09:23.138Z,96688.19
2023-05-15T18:11:51.638Z,96689.03
2023-05-15T18:14:19.046Z,96688.44
2023-05-15T18:16:46.463Z,96697.22
2023-05-15T18:19:13.946Z,96703.97
2023-05-15T18:21:41.328Z,96700.53
2023-05-15T18:24:08.640Z,96704.66
2023-05-15T18:26:35.977Z,96711.06
2023-05-15T18:29:03.375Z,96710.91
2023-05-15T18:31:30.970Z,96719.47
2023-05-15T18:33:58.301Z,96720.91
2023-05-15T18:36:26.078Z,96724.97
2023-05-15T18:38:53.457Z,96729.47
2023-05-15T18:41:21.204Z,96726.69
2023-05-15T18:43:48.552Z,96735.28
2023-05-15T18:46:15.894Z,96735.13
2023-05-15T18:48:43.298Z,96740.91
2023-05-15T18:51:12.645Z,96740.25
2023-05-15T18:53:40.258Z,96742.91
2023-05-15T18:56:07.555Z,96739.88
2023-05-15T18:58:35.547Z,96737.22
2023-05-15T19:01:03.387Z,96748.94
2023-05-15T19:03:30.906Z,96748.59
2023-05-15T19:05:58.709Z,96751.41
2023-05-15T19:08:26.090Z,96760.03
2023-05-15T19:10:53.480Z,96753.00
2023-05-15T19:13:21.355Z,96759.31
2023-05-15T19:15:54.971Z,96762.13
2023-05-15T19:18:22.256Z,96756.75
2023-05-15T19:20:54.238Z,96754.69
2023-05-15T19:23:21.708Z,96752.66
2023-05-15T19:25:49.152Z,96752.94
2023-05-15T19:28:16.625Z,96753.31
2023-05-15T19:30:44.136Z,96757.22
2023-05-15T19:33:13.136Z,96760.63
2023-05-15T19:35:40.985Z,96765.44
2023-05-15T19:38:08.389Z,96761.88
2023-05-15T19:40:36.507Z,96766.94
2023-05-15T19:43:04.253Z,96764.00
2023-05-15T19:45:31.576Z,96765.78
2023-05-15T19:48:00.498Z,96773.41
2023-05-15T19:50:28.216Z,96774.56
2023-05-15T19:52:56.038Z,96775.88
2023-05-15T19:55:23.343Z,96779.66
2023-05-15T19:57:55.160Z,96778.28
2023-05-15T20:00:22.968Z,96780.81
2023-05-15T20:02:50.449Z,96779.06
2023-05-15T20:05:18.035Z,96782.75
2023-05-15T20:07:45.524Z,96776.47
2023-05-15T20:10:14.097Z,96780.00
2023-05-15T20:12:41.317Z,96777.34
2023-05-15T20:15:09.329Z,96787.50
2023-05-15T20:17:36.992Z,96786.53
2023-05-15T20:20:09.939Z,96795.06
2023-05-15T20:22:38.742Z,96782.66
2023-05-15T20:25:06.730Z,96786.25
2023-05-15T20:27:34.566Z,96784.28
2023-05-15T20:30:03.982Z,96784.00
2023-05-15T20:32:32.081Z,96782.47
2023-05-15T20:35:00.716Z,96781.78
2023-05-15T20:37:29.106Z,96789.53
2023-05-15T20:39:57.982Z,96793.44
2023-05-15T20:42:27.760Z,96787.47
2023-05-15T20:44:55.202Z,96789.41
2023-05-15T20:47:23.077Z,96796.78
2023-05-15T20:49:50.668Z,96794.13
2023-05-15T20:52:18.077Z,96797.66
2023-05-15T20:54:45.504Z,96795.97
2023-05-15T20:57:12.802Z,96800.41
2023-05-15T20:59:40.139Z,96807.47
2023-05-15T21:02:07.710Z,96805.31
2023-05-15T21:04:36.437Z,96805.50
2023-05-15T21:07:04.225Z,96807.88
2023-05-15T21:09:31.754Z,96811.66
2023-05-15T21:11:59.881Z,96816.03
2023-05-15T21:14:27.303Z,96817.31
2023-05-15T21:16:54.619Z,96814.00
2023-05-15T21:19:22.344Z,96811.66
2023-05-15T21:21:49.647Z,96821.19
2023-05-15T21:24:17.012Z,96821.66
2023-05-15T21:26:44.233Z,96814.69
2023-05-15T21:29:11.620Z,96822.16
2023-05-15T21:31:38.965Z,96826.56
2023-05-15T21:34:06.292Z,96827.63
2023-05-15T21:36:34.404Z,96830.81
2023-05-15T21:39:01.606Z,96826.31
2023-05-15T21:41:28.874Z,96829.06
2023-05-15T21:43:56.140Z,96823.38
2023-05-15T21:46:23.791Z,96818.75
2023-05-15T21:48:51.163Z,96823.72
2023-05-15T21:51:18.450Z,96826.88
2023-05-15T21:53:45.722Z,96826.88
2023-05-15T21:56:13.045Z,96836.56
2023-05-15T21:58:40.400Z,96844.72
2023-05-15T22:01:07.852Z,96836.59
2023-05-15T22:03:35.421Z,96841.66
2023-05-15T22:06:02.937Z,96833.09
2023-05-15T22:08:30.147Z,96827.81
2023-05-15T22:10:57.427Z,96827.69
2023-05-15T22:13:24.951Z,96822.38
2023-05-15T22:15:52.299Z,96824.66
2023-05-15T22:18:19.541Z,96824.81
2023-05-15T22:20:48.869Z,96833.63
2023-05-15T22:23:16.356Z,96835.81
2023-05-15T22:25:43.879Z,96839.75
2023-05-15T22:28:11.208Z,96835.25
2023-05-15T22:30:38.452Z,96837.81
2023-05-15T22:33:06.021Z,96833.03
2023-05-15T22:35:33.218Z,96841.59
2023-05-15T22:38:00.639Z,96838.81
2023-05-15T22:40:28.049Z,96851.66
2023-05-15T22:42:55.482Z,96840.72
2023-05-15T22:45:22.834Z,96842.88
2023-05-15T22:47:51.274Z,96835.69
2023-05-15T22:50:18.659Z,96841.72
2023-05-15T22:52:46.269Z,96847.63
2023-05-15T22:55:13.972Z,96847.06
2023-05-15T22:57:41.300Z,96845.47
2023-05-15T23:00:09.836Z,96853.34
2023-05-15T23:02:38.544Z,96846.59
2023-05-15T23:05:06.565Z,96848.78
2023-05-15T23:07:34.006Z,96854.53
2023-05-15T23:10:01.593Z,96845.47
2023-05-15T23:12:29.423Z,96852.13
2023-05-15T23:14:56.746Z,96848.06
2023-05-15T23:17:25.713Z,96849.84
2023-05-15T23:19:53.695Z,96855.50
2023-05-15T23:22:21.281Z,96859.31
2023-05-15T23:24:48.714Z,96848.22
2023-05-15T23:27:15.934Z,96856.84
2023-05-15T23:29:43.256Z,96859.53
2023-05-15T23:32:10.598Z,96858.00
2023-05-15T23:34:37.868Z,96849.31
2023-05-15T23:37:05.732Z,96851.66
2023-05-15T23:39:32.978Z,96849.00
2023-05-15T23:42:00.385Z,96847.38
2023-05-15T23:44:27.726Z,96850.47
2023-05-15T23:46:55.100Z,96848.91
2023-05-15T23:49:22.386Z,96850.69
2023-05-15T23:51:50.106Z,96849.84
2023-05-15T23:54:17.394Z,96851.44
2023-05-15T23:56:44.625Z,96849.03
2023-05-15T23:59:11.846Z,96844.88
